sensor_id;sensor_type;location;lat;lon;timestamp;temperature;humidity
69204;DHT22;56317;27.658;85.326;2023-07-20T00:02:05;21.80;99.90
69204;DHT22;56317;27.658;85.326;2023-07-20T00:04:33;21.80;99.90
69204;DHT22;56317;27.658;85.326;2023-07-20T00:07:01;21.80;99.90
69204;DHT22;56317;27.658;85.326;2023-07-20T00:09:28;21.80;99.90
69204;DHT22;56317;27.658;85.326;2023-07-20T00:11:55;21.90;99.90
69204;DHT22;56317;27.658;85.326;2023-07-20T00:14:22;22.00;99.90
69204;DHT22;56317;27.658;85.326;2023-07-20T00:16:54;22.10;99.90
69204;DHT22;56317;27.658;85.326;2023-07-20T00:19:25;22.10;99.90
69204;DHT22;56317;27.658;85.326;2023-07-20T00:21:53;22.20;99.90
69204;DHT22;56317;27.658;85.326;2023-07-20T00:24:21;22.30;99.90
69204;DHT22;56317;27.658;85.326;2023-07-20T00:26:48;22.40;99.90
69204;DHT22;56317;27.658;85.326;2023-07-20T00:29:15;22.50;99.90
69204;DHT22;56317;27.658;85.326;2023-07-20T00:31:42;22.50;99.90
69204;DHT22;56317;27.658;85.326;2023-07-20T00:34:09;22.60;99.90
69204;DHT22;56317;27.658;85.326;2023-07-20T00:36:37;22.70;99.90
69204;DHT22;56317;27.658;85.326;2023-07-20T00:39:04;22.80;99.90
69204;DHT22;56317;27.658;85.326;2023-07-20T00:41:31;23.00;99.90
69204;DHT22;56317;27.658;85.326;2023-07-20T00:43:59;23.10;99.90
69204;DHT22;56317;27.658;85.326;2023-07-20T00:46:26;23.10;99.90
69204;DHT22;56317;27.658;85.326;2023-07-20T00:48:54;23.20;99.90
69204;DHT22;56317;27.658;85.326;2023-07-20T00:51:22;23.20;99.90
69204;DHT22;56317;27.658;85.326;2023-07-20T00:53:50;23.30;99.90
69204;DHT22;56317;27.658;85.326;2023-07-20T00:56:17;23.40;99.90
69204;DHT22;56317;27.658;85.326;2023-07-20T00:58:44;23.50;99.90
69204;DHT22;56317;27.658;85.326;2023-07-20T01:01:11;23.50;99.90
69204;DHT22;56317;27.658;85.326;2023-07-20T01:03:39;23.50;99.90
69204;DHT22;56317;27.658;85.326;2023-07-20T01:09:34;23.60;99.90
69204;DHT22;56317;27.658;85.326;2023-07-20T01:14:42;23.70;99.90
69204;DHT22;56317;27.658;85.326;2023-07-20T01:17:09;23.70;99.90
69204;DHT22;56317;27.658;85.326;2023-07-20T01:19:36;23.70;99.90
69204;DHT22;56317;27.658;85.326;2023-07-20T01:22:36;23.70;99.90
69204;DHT22;56317;27.658;85.326;2023-07-20T01:25:31;23.60;99.90
69204;DHT22;56317;27.658;85.326;2023-07-20T01:33:46;23.50;99.90
69204;DHT22;56317;27.658;85.326;2023-07-20T01:36:17;23.50;99.90
69204;DHT22;56317;27.658;85.326;2023-07-20T01:38:46;23.40;99.90
69204;DHT22;56317;27.658;85.326;2023-07-20T01:41:14;23.40;99.90
69204;DHT22;56317;27.658;85.326;2023-07-20T01:43:43;23.50;99.90
69204;DHT22;56317;27.658;85.326;2023-07-20T01:46:10;23.40;99.90
69204;DHT22;56317;27.658;85.326;2023-07-20T01:48:37;23.50;99.90
69204;DHT22;56317;27.658;85.326;2023-07-20T01:51:04;23.60;99.90
69204;DHT22;56317;27.658;85.326;2023-07-20T01:53:31;23.70;99.90
69204;DHT22;56317;27.658;85.326;2023-07-20T01:55:58;23.90;99.90
69204;DHT22;56317;27.658;85.326;2023-07-20T01:58:25;24.00;99.90
69204;DHT22;56317;27.658;85.326;2023-07-20T02:00:52;24.30;99.90
69204;DHT22;56317;27.658;85.326;2023-07-20T02:03:19;24.50;99.90
69204;DHT22;56317;27.658;85.326;2023-07-20T02:05:48;24.70;99.90
69204;DHT22;56317;27.658;85.326;2023-07-20T02:08:15;24.90;99.90
69204;DHT22;56317;27.658;85.326;2023-07-20T02:10:44;25.10;99.90
69204;DHT22;56317;27.658;85.326;2023-07-20T02:13:11;25.10;99.90
69204;DHT22;56317;27.658;85.326;2023-07-20T02:15:38;25.00;99.90
69204;DHT22;56317;27.658;85.326;2023-07-20T02:18:06;25.10;99.90
69204;DHT22;56317;27.658;85.326;2023-07-20T02:20:34;25.10;99.90
69204;DHT22;56317;27.658;85.326;2023-07-20T02:23:01;25.00;99.90
69204;DHT22;56317;27.658;85.326;2023-07-20T02:25:28;25.20;99.90
69204;DHT22;56317;27.658;85.326;2023-07-20T02:27:56;25.30;99.90
69204;DHT22;56317;27.658;85.326;2023-07-20T02:30:24;25.50;99.90
69204;DHT22;56317;27.658;85.326;2023-07-20T02:32:52;25.50;99.90
69204;DHT22;56317;27.658;85.326;2023-07-20T02:35:19;25.50;99.90
69204;DHT22;56317;27.658;85.326;2023-07-20T02:37:46;25.60;99.90
69204;DHT22;56317;27.658;85.326;2023-07-20T02:40:13;25.60;99.90
69204;DHT22;56317;27.658;85.326;2023-07-20T02:42:40;25.70;99.90
69204;DHT22;56317;27.658;85.326;2023-07-20T02:45:08;25.80;99.90
69204;DHT22;56317;27.658;85.326;2023-07-20T02:47:35;26.00;99.90
69204;DHT22;56317;27.658;85.326;2023-07-20T02:50:02;26.10;99.90
69204;DHT22;56317;27.658;85.326;2023-07-20T02:52:29;26.20;99.90
69204;DHT22;56317;27.658;85.326;2023-07-20T02:54:56;26.50;99.90
69204;DHT22;56317;27.658;85.326;2023-07-20T02:57:24;26.70;99.90
69204;DHT22;56317;27.658;85.326;2023-07-20T02:59:51;26.80;99.90
69204;DHT22;56317;27.658;85.326;2023-07-20T03:02:18;26.90;99.90
69204;DHT22;56317;27.658;85.326;2023-07-20T03:04:46;27.00;99.90
69204;DHT22;56317;27.658;85.326;2023-07-20T03:07:13;27.00;99.90
69204;DHT22;56317;27.658;85.326;2023-07-20T03:09:40;27.20;99.90
69204;DHT22;56317;27.658;85.326;2023-07-20T03:12:08;27.40;99.90
69204;DHT22;56317;27.658;85.326;2023-07-20T03:14:35;27.60;99.90
69204;DHT22;56317;27.658;85.326;2023-07-20T03:17:04;27.80;99.90
69204;DHT22;56317;27.658;85.326;2023-07-20T03:19:31;27.80;99.90
69204;DHT22;56317;27.658;85.326;2023-07-20T03:21:58;27.80;99.90
69204;DHT22;56317;27.658;85.326;2023-07-20T03:24:25;27.90;99.90
69204;DHT22;56317;27.658;85.326;2023-07-20T03:26:52;28.00;99.90
69204;DHT22;56317;27.658;85.326;2023-07-20T03:29:20;28.10;99.90
69204;DHT22;56317;27.658;85.326;2023-07-20T03:31:47;28.20;99.90
69204;DHT22;56317;27.658;85.326;2023-07-20T03:34:14;28.30;99.90
69204;DHT22;56317;27.658;85.326;2023-07-20T03:36:41;28.30;99.90
69204;DHT22;56317;27.658;85.326;2023-07-20T03:39:08;28.10;99.90
69204;DHT22;56317;27.658;85.326;2023-07-20T03:41:36;28.20;99.90
69204;DHT22;56317;27.658;85.326;2023-07-20T03:44:03;28.30;99.90
69204;DHT22;56317;27.658;85.326;2023-07-20T03:46:31;28.60;99.90
69204;DHT22;56317;27.658;85.326;2023-07-20T03:49:00;28.90;99.90
69204;DHT22;56317;27.658;85.326;2023-07-20T03:51:27;29.10;99.90
69204;DHT22;56317;27.658;85.326;2023-07-20T03:53:55;29.20;99.90
69204;DHT22;56317;27.658;85.326;2023-07-20T03:56:23;29.30;99.90
69204;DHT22;56317;27.658;85.326;2023-07-20T03:58:50;29.50;99.90
69204;DHT22;56317;27.658;85.326;2023-07-20T04:01:18;29.50;99.90
69204;DHT22;56317;27.658;85.326;2023-07-20T04:03:45;29.50;99.90
69204;DHT22;56317;27.658;85.326;2023-07-20T04:06:12;29.50;99.90
69204;DHT22;56317;27.658;85.326;2023-07-20T04:08:40;29.40;99.90
69204;DHT22;56317;27.658;85.326;2023-07-20T04:11:07;29.50;99.90
69204;DHT22;56317;27.658;85.326;2023-07-20T04:13:35;29.60;99.90
69204;DHT22;56317;27.658;85.326;2023-07-20T04:16:02;29.60;99.90
69204;DHT22;56317;27.658;85.326;2023-07-20T04:18:29;29.70;99.90
69204;DHT22;56317;27.658;85.326;2023-07-20T04:20:57;29.70;99.90
69204;DHT22;56317;27.658;85.326;2023-07-20T04:23:24;29.70;99.90
69204;DHT22;56317;27.658;85.326;2023-07-20T04:25:52;29.80;99.90
69204;DHT22;56317;27.658;85.326;2023-07-20T04:28:19;29.80;99.90
69204;DHT22;56317;27.658;85.326;2023-07-20T04:30:49;29.90;99.90
69204;DHT22;56317;27.658;85.326;2023-07-20T04:33:17;30.20;99.90
69204;DHT22;56317;27.658;85.326;2023-07-20T04:35:52;30.50;99.90
69204;DHT22;56317;27.658;85.326;2023-07-20T04:38:20;30.90;99.90
69204;DHT22;56317;27.658;85.326;2023-07-20T04:40:49;31.00;99.90
69204;DHT22;56317;27.658;85.326;2023-07-20T04:43:17;31.30;99.90
69204;DHT22;56317;27.658;85.326;2023-07-20T04:45:44;31.70;99.90
69204;DHT22;56317;27.658;85.326;2023-07-20T04:48:14;31.90;99.90
69204;DHT22;56317;27.658;85.326;2023-07-20T04:50:44;32.40;99.90
69204;DHT22;56317;27.658;85.326;2023-07-20T04:53:12;32.90;99.90
69204;DHT22;56317;27.658;85.326;2023-07-20T04:55:39;33.30;99.90
69204;DHT22;56317;27.658;85.326;2023-07-20T04:58:07;33.70;99.90
69204;DHT22;56317;27.658;85.326;2023-07-20T05:00:35;33.90;99.90
69204;DHT22;56317;27.658;85.326;2023-07-20T05:03:02;34.10;99.90
69204;DHT22;56317;27.658;85.326;2023-07-20T05:05:31;34.40;99.90
69204;DHT22;56317;27.658;85.326;2023-07-20T05:07:59;34.40;99.90
69204;DHT22;56317;27.658;85.326;2023-07-20T05:10:26;34.30;99.90
69204;DHT22;56317;27.658;85.326;2023-07-20T05:12:53;34.00;99.90
69204;DHT22;56317;27.658;85.326;2023-07-20T05:15:21;33.30;99.90
69204;DHT22;56317;27.658;85.326;2023-07-20T05:17:48;32.80;99.90
69204;DHT22;56317;27.658;85.326;2023-07-20T05:20:15;32.60;99.90
69204;DHT22;56317;27.658;85.326;2023-07-20T05:22:43;32.90;99.90
69204;DHT22;56317;27.658;85.326;2023-07-20T05:25:11;33.20;99.90
69204;DHT22;56317;27.658;85.326;2023-07-20T05:27:39;33.40;99.90
69204;DHT22;56317;27.658;85.326;2023-07-20T05:30:07;33.00;99.90
69204;DHT22;56317;27.658;85.326;2023-07-20T05:32:34;32.70;99.90
69204;DHT22;56317;27.658;85.326;2023-07-20T05:35:02;32.30;99.90
69204;DHT22;56317;27.658;85.326;2023-07-20T05:37:29;31.70;99.90
69204;DHT22;56317;27.658;85.326;2023-07-20T05:39:57;31.20;99.90
69204;DHT22;56317;27.658;85.326;2023-07-20T05:42:24;30.80;99.90
69204;DHT22;56317;27.658;85.326;2023-07-20T05:44:51;30.70;99.90
69204;DHT22;56317;27.658;85.326;2023-07-20T05:47:19;30.50;99.90
69204;DHT22;56317;27.658;85.326;2023-07-20T05:49:49;30.50;99.90
69204;DHT22;56317;27.658;85.326;2023-07-20T05:52:16;30.60;99.90
69204;DHT22;56317;27.658;85.326;2023-07-20T05:54:43;30.60;99.90
69204;DHT22;56317;27.658;85.326;2023-07-20T05:57:11;30.50;99.90
69204;DHT22;56317;27.658;85.326;2023-07-20T05:59:38;30.50;99.90
69204;DHT22;56317;27.658;85.326;2023-07-20T06:02:07;30.60;99.90
69204;DHT22;56317;27.658;85.326;2023-07-20T06:04:34;30.70;99.90
69204;DHT22;56317;27.658;85.326;2023-07-20T06:07:02;30.70;99.90
69204;DHT22;56317;27.658;85.326;2023-07-20T06:09:32;30.80;99.90
69204;DHT22;56317;27.658;85.326;2023-07-20T06:12:00;30.90;99.90
69204;DHT22;56317;27.658;85.326;2023-07-20T06:14:27;30.90;99.90
69204;DHT22;56317;27.658;85.326;2023-07-20T06:16:54;30.80;99.90
69204;DHT22;56317;27.658;85.326;2023-07-20T06:19:21;30.80;99.90
69204;DHT22;56317;27.658;85.326;2023-07-20T06:21:52;30.80;99.90
69204;DHT22;56317;27.658;85.326;2023-07-20T06:24:19;30.70;99.90
69204;DHT22;56317;27.658;85.326;2023-07-20T06:26:46;31.00;99.90
69204;DHT22;56317;27.658;85.326;2023-07-20T06:29:13;31.00;99.90
69204;DHT22;56317;27.658;85.326;2023-07-20T06:31:40;31.00;99.90
69204;DHT22;56317;27.658;85.326;2023-07-20T06:34:07;31.10;99.90
69204;DHT22;56317;27.658;85.326;2023-07-20T06:36:35;31.10;99.90
69204;DHT22;56317;27.658;85.326;2023-07-20T06:39:02;31.40;99.90
69204;DHT22;56317;27.658;85.326;2023-07-20T06:41:29;31.50;99.90
69204;DHT22;56317;27.658;85.326;2023-07-20T06:43:56;31.60;99.90
69204;DHT22;56317;27.658;85.326;2023-07-20T06:46:25;31.70;99.90
69204;DHT22;56317;27.658;85.326;2023-07-20T06:48:54;31.90;99.90
69204;DHT22;56317;27.658;85.326;2023-07-20T06:51:21;32.10;99.90
69204;DHT22;56317;27.658;85.326;2023-07-20T06:53:48;32.00;99.90
69204;DHT22;56317;27.658;85.326;2023-07-20T06:56:15;32.20;99.90
69204;DHT22;56317;27.658;85.326;2023-07-20T06:58:43;32.40;99.90
69204;DHT22;56317;27.658;85.326;2023-07-20T07:01:10;32.60;99.90
69204;DHT22;56317;27.658;85.326;2023-07-20T07:03:37;32.60;99.90
69204;DHT22;56317;27.658;85.326;2023-07-20T07:06:04;32.60;99.90
69204;DHT22;56317;27.658;85.326;2023-07-20T07:08:32;32.90;99.90
69204;DHT22;56317;27.658;85.326;2023-07-20T07:10:59;33.40;99.90
69204;DHT22;56317;27.658;85.326;2023-07-20T07:13:26;34.60;99.90
69204;DHT22;56317;27.658;85.326;2023-07-20T07:15:53;36.10;99.80
69204;DHT22;56317;27.658;85.326;2023-07-20T07:18:21;36.80;98.30
69204;DHT22;56317;27.658;85.326;2023-07-20T07:20:52;37.80;97.30
69204;DHT22;56317;27.658;85.326;2023-07-20T07:23:20;38.20;96.10
69204;DHT22;56317;27.658;85.326;2023-07-20T07:25:47;38.70;95.20
69204;DHT22;56317;27.658;85.326;2023-07-20T07:28:14;39.40;94.50
69204;DHT22;56317;27.658;85.326;2023-07-20T07:30:42;40.10;93.50
69204;DHT22;56317;27.658;85.326;2023-07-20T07:33:09;41.20;92.30
69204;DHT22;56317;27.658;85.326;2023-07-20T07:35:36;41.70;90.60
69204;DHT22;56317;27.658;85.326;2023-07-20T07:38:08;40.80;90.80
69204;DHT22;56317;27.658;85.326;2023-07-20T07:40:35;41.40;89.20
69204;DHT22;56317;27.658;85.326;2023-07-20T07:43:02;41.20;88.30
69204;DHT22;56317;27.658;85.326;2023-07-20T07:45:30;40.00;88.10
69204;DHT22;56317;27.658;85.326;2023-07-20T07:48:00;37.90;90.40
69204;DHT22;56317;27.658;85.326;2023-07-20T07:50:28;36.30;92.00
69204;DHT22;56317;27.658;85.326;2023-07-20T07:52:56;34.40;93.70
69204;DHT22;56317;27.658;85.326;2023-07-20T07:55:24;33.20;95.50
69204;DHT22;56317;27.658;85.326;2023-07-20T07:57:55;32.30;97.00
69204;DHT22;56317;27.658;85.326;2023-07-20T08:00:22;31.80;98.50
69204;DHT22;56317;27.658;85.326;2023-07-20T08:02:50;31.80;99.80
69204;DHT22;56317;27.658;85.326;2023-07-20T08:05:18;34.00;98.10
69204;DHT22;56317;27.658;85.326;2023-07-20T08:07:45;35.90;96.20
69204;DHT22;56317;27.658;85.326;2023-07-20T08:10:12;35.50;94.70
69204;DHT22;56317;27.658;85.326;2023-07-20T08:12:39;34.10;96.10
69204;DHT22;56317;27.658;85.326;2023-07-20T08:15:07;32.70;97.80
69204;DHT22;56317;27.658;85.326;2023-07-20T08:17:34;31.70;99.20
69204;DHT22;56317;27.658;85.326;2023-07-20T08:20:01;30.90;99.90
69204;DHT22;56317;27.658;85.326;2023-07-20T08:22:29;30.40;99.90
69204;DHT22;56317;27.658;85.326;2023-07-20T08:24:56;30.10;99.90
69204;DHT22;56317;27.658;85.326;2023-07-20T08:27:24;29.80;99.90
69204;DHT22;56317;27.658;85.326;2023-07-20T08:29:52;29.40;99.90
69204;DHT22;56317;27.658;85.326;2023-07-20T08:32:19;29.10;99.90
69204;DHT22;56317;27.658;85.326;2023-07-20T08:34:46;28.80;99.90
69204;DHT22;56317;27.658;85.326;2023-07-20T08:37:14;28.50;99.90
69204;DHT22;56317;27.658;85.326;2023-07-20T08:39:41;28.40;99.90
69204;DHT22;56317;27.658;85.326;2023-07-20T08:42:10;28.20;99.90
69204;DHT22;56317;27.658;85.326;2023-07-20T08:44:42;27.80;99.90
69204;DHT22;56317;27.658;85.326;2023-07-20T08:47:11;27.60;99.90
69204;DHT22;56317;27.658;85.326;2023-07-20T08:49:40;27.50;99.90
69204;DHT22;56317;27.658;85.326;2023-07-20T08:52:08;27.40;99.90
69204;DHT22;56317;27.658;85.326;2023-07-20T08:54:35;27.40;99.90
69204;DHT22;56317;27.658;85.326;2023-07-20T08:57:04;27.30;99.90
69204;DHT22;56317;27.658;85.326;2023-07-20T08:59:32;27.30;99.90
69204;DHT22;56317;27.658;85.326;2023-07-20T09:02:01;27.30;99.90
69204;DHT22;56317;27.658;85.326;2023-07-20T09:04:29;27.20;99.90
69204;DHT22;56317;27.658;85.326;2023-07-20T09:06:58;27.20;99.90
69204;DHT22;56317;27.658;85.326;2023-07-20T09:09:25;27.10;99.90
69204;DHT22;56317;27.658;85.326;2023-07-20T09:11:53;26.80;99.90
69204;DHT22;56317;27.658;85.326;2023-07-20T09:14:20;26.60;99.90
69204;DHT22;56317;27.658;85.326;2023-07-20T09:16:54;26.50;99.90
69204;DHT22;56317;27.658;85.326;2023-07-20T09:19:22;26.60;99.90
69204;DHT22;56317;27.658;85.326;2023-07-20T09:21:50;26.70;99.90
69204;DHT22;56317;27.658;85.326;2023-07-20T09:24:21;26.80;99.90
69204;DHT22;56317;27.658;85.326;2023-07-20T09:26:48;27.00;99.90
69204;DHT22;56317;27.658;85.326;2023-07-20T09:29:20;27.20;99.90
69204;DHT22;56317;27.658;85.326;2023-07-20T09:32:04;27.40;99.90
69204;DHT22;56317;27.658;85.326;2023-07-20T09:34:32;27.60;99.90
69204;DHT22;56317;27.658;85.326;2023-07-20T09:36:59;27.70;99.90
69204;DHT22;56317;27.658;85.326;2023-07-20T09:39:30;27.70;99.90
69204;DHT22;56317;27.658;85.326;2023-07-20T09:42:06;27.70;99.90
69204;DHT22;56317;27.658;85.326;2023-07-20T09:44:34;27.70;99.90
69204;DHT22;56317;27.658;85.326;2023-07-20T09:47:03;27.70;99.90
69204;DHT22;56317;27.658;85.326;2023-07-20T09:49:31;27.70;99.90
69204;DHT22;56317;27.658;85.326;2023-07-20T09:52:00;27.70;99.90
69204;DHT22;56317;27.658;85.326;2023-07-20T09:54:29;27.70;99.90
69204;DHT22;56317;27.658;85.326;2023-07-20T09:56:56;27.70;99.90
69204;DHT22;56317;27.658;85.326;2023-07-20T09:59:23;27.80;99.90
69204;DHT22;56317;27.658;85.326;2023-07-20T10:01:54;27.90;99.90
69204;DHT22;56317;27.658;85.326;2023-07-20T10:04:24;27.90;99.90
69204;DHT22;56317;27.658;85.326;2023-07-20T10:06:52;27.90;99.90
69204;DHT22;56317;27.658;85.326;2023-07-20T10:09:22;28.00;99.90
69204;DHT22;56317;27.658;85.326;2023-07-20T10:11:51;28.00;99.90
69204;DHT22;56317;27.658;85.326;2023-07-20T10:14:20;27.90;99.90
69204;DHT22;56317;27.658;85.326;2023-07-20T10:16:51;27.90;99.90
69204;DHT22;56317;27.658;85.326;2023-07-20T10:19:25;27.90;99.90
69204;DHT22;56317;27.658;85.326;2023-07-20T10:22:02;27.90;99.90
69204;DHT22;56317;27.658;85.326;2023-07-20T10:24:32;27.90;99.90
69204;DHT22;56317;27.658;85.326;2023-07-20T10:27:01;28.00;99.90
69204;DHT22;56317;27.658;85.326;2023-07-20T10:29:29;27.90;99.90
69204;DHT22;56317;27.658;85.326;2023-07-20T10:31:57;27.90;99.90
69204;DHT22;56317;27.658;85.326;2023-07-20T10:34:25;28.00;99.90
69204;DHT22;56317;27.658;85.326;2023-07-20T10:36:52;28.00;99.90
69204;DHT22;56317;27.658;85.326;2023-07-20T10:39:28;28.10;99.90
69204;DHT22;56317;27.658;85.326;2023-07-20T10:42:10;28.00;99.90
69204;DHT22;56317;27.658;85.326;2023-07-20T10:44:38;28.00;99.90
69204;DHT22;56317;27.658;85.326;2023-07-20T10:47:12;28.00;99.90
69204;DHT22;56317;27.658;85.326;2023-07-20T10:49:59;28.00;99.90
69204;DHT22;56317;27.658;85.326;2023-07-20T10:52:37;28.10;99.90
69204;DHT22;56317;27.658;85.326;2023-07-20T10:55:17;28.00;99.90
69204;DHT22;56317;27.658;85.326;2023-07-20T10:58:10;28.00;99.90
69204;DHT22;56317;27.658;85.326;2023-07-20T11:00:57;28.00;99.90
69204;DHT22;56317;27.658;85.326;2023-07-20T11:03:33;28.10;99.90
69204;DHT22;56317;27.658;85.326;2023-07-20T11:09:08;28.30;99.90
69204;DHT22;56317;27.658;85.326;2023-07-20T11:11:48;28.30;99.90
69204;DHT22;56317;27.658;85.326;2023-07-20T11:14:25;28.30;99.90
69204;DHT22;56317;27.658;85.326;2023-07-20T11:16:53;28.30;99.90
69204;DHT22;56317;27.658;85.326;2023-07-20T11:19:26;28.50;99.90
69204;DHT22;56317;27.658;85.326;2023-07-20T11:21:55;28.70;99.90
69204;DHT22;56317;27.658;85.326;2023-07-20T11:24:23;29.20;99.90
69204;DHT22;56317;27.658;85.326;2023-07-20T11:26:54;29.80;99.90
69204;DHT22;56317;27.658;85.326;2023-07-20T11:29:22;30.70;99.90
69204;DHT22;56317;27.658;85.326;2023-07-20T11:31:50;31.40;99.90
69204;DHT22;56317;27.658;85.326;2023-07-20T11:34:19;31.40;99.90
69204;DHT22;56317;27.658;85.326;2023-07-20T11:36:51;31.50;99.90
69204;DHT22;56317;27.658;85.326;2023-07-20T11:39:19;31.70;99.90
69204;DHT22;56317;27.658;85.326;2023-07-20T11:41:54;31.60;99.90
69204;DHT22;56317;27.658;85.326;2023-07-20T11:44:23;31.40;99.90
69204;DHT22;56317;27.658;85.326;2023-07-20T11:47:06;31.40;99.90
69204;DHT22;56317;27.658;85.326;2023-07-20T11:52:11;31.20;99.90
69204;DHT22;56317;27.658;85.326;2023-07-20T11:54:42;30.70;99.90
69204;DHT22;56317;27.658;85.326;2023-07-20T11:57:22;30.20;99.90
69204;DHT22;56317;27.658;85.326;2023-07-20T11:59:56;29.80;99.90
69204;DHT22;56317;27.658;85.326;2023-07-20T12:02:27;29.50;99.90
69204;DHT22;56317;27.658;85.326;2023-07-20T12:04:55;29.30;99.90
69204;DHT22;56317;27.658;85.326;2023-07-20T12:07:25;28.90;99.90
69204;DHT22;56317;27.658;85.326;2023-07-20T12:10:11;28.80;99.90
69204;DHT22;56317;27.658;85.326;2023-07-20T12:12:43;28.50;99.90
69204;DHT22;56317;27.658;85.326;2023-07-20T12:15:22;28.40;99.90
69204;DHT22;56317;27.658;85.326;2023-07-20T12:17:53;28.30;99.90
69204;DHT22;56317;27.658;85.326;2023-07-20T12:20:31;28.20;99.90
69204;DHT22;56317;27.658;85.326;2023-07-20T12:23:06;28.00;99.90
69204;DHT22;56317;27.658;85.326;2023-07-20T12:25:45;27.90;99.90
69204;DHT22;56317;27.658;85.326;2023-07-20T12:28:14;27.80;99.90
69204;DHT22;56317;27.658;85.326;2023-07-20T12:30:42;27.60;99.90
69204;DHT22;56317;27.658;85.326;2023-07-20T12:33:10;27.50;99.90
69204;DHT22;56317;27.658;85.326;2023-07-20T12:35:46;27.50;99.90
69204;DHT22;56317;27.658;85.326;2023-07-20T12:38:13;27.50;99.90
69204;DHT22;56317;27.658;85.326;2023-07-20T12:40:40;27.40;99.90
69204;DHT22;56317;27.658;85.326;2023-07-20T12:43:07;27.40;99.90
69204;DHT22;56317;27.658;85.326;2023-07-20T12:45:35;27.30;99.90
69204;DHT22;56317;27.658;85.326;2023-07-20T12:48:02;27.20;99.90
69204;DHT22;56317;27.658;85.326;2023-07-20T12:50:29;27.20;99.90
69204;DHT22;56317;27.658;85.326;2023-07-20T12:52:56;27.10;99.90
69204;DHT22;56317;27.658;85.326;2023-07-20T12:55:23;26.90;99.90
69204;DHT22;56317;27.658;85.326;2023-07-20T12:57:50;26.70;99.90
69204;DHT22;56317;27.658;85.326;2023-07-20T13:00:18;26.40;99.90
69204;DHT22;56317;27.658;85.326;2023-07-20T13:02:45;26.20;99.90
69204;DHT22;56317;27.658;85.326;2023-07-20T13:05:12;26.00;99.90
69204;DHT22;56317;27.658;85.326;2023-07-20T13:07:40;25.80;99.90
69204;DHT22;56317;27.658;85.326;2023-07-20T13:10:08;25.60;99.90
69204;DHT22;56317;27.658;85.326;2023-07-20T13:12:36;25.60;99.90
69204;DHT22;56317;27.658;85.326;2023-07-20T13:15:08;25.40;99.90
69204;DHT22;56317;27.658;85.326;2023-07-20T13:17:37;25.40;99.90
69204;DHT22;56317;27.658;85.326;2023-07-20T13:20:09;25.30;99.90
69204;DHT22;56317;27.658;85.326;2023-07-20T13:22:38;25.20;99.90
69204;DHT22;56317;27.658;85.326;2023-07-20T13:25:05;25.10;99.90
69204;DHT22;56317;27.658;85.326;2023-07-20T13:27:33;25.10;99.90
69204;DHT22;56317;27.658;85.326;2023-07-20T13:30:01;25.00;99.90
69204;DHT22;56317;27.658;85.326;2023-07-20T13:32:33;24.90;99.90
69204;DHT22;56317;27.658;85.326;2023-07-20T13:35:00;24.80;99.90
69204;DHT22;56317;27.658;85.326;2023-07-20T13:37:27;24.80;99.90
69204;DHT22;56317;27.658;85.326;2023-07-20T13:39:55;24.70;99.90
69204;DHT22;56317;27.658;85.326;2023-07-20T13:42:22;24.70;99.90
69204;DHT22;56317;27.658;85.326;2023-07-20T13:44:49;24.70;99.90
69204;DHT22;56317;27.658;85.326;2023-07-20T13:47:16;24.60;99.90
69204;DHT22;56317;27.658;85.326;2023-07-20T13:49:44;24.60;99.90
69204;DHT22;56317;27.658;85.326;2023-07-20T13:52:11;24.50;99.90
69204;DHT22;56317;27.658;85.326;2023-07-20T13:54:38;24.40;99.90
69204;DHT22;56317;27.658;85.326;2023-07-20T13:57:05;24.40;99.90
69204;DHT22;56317;27.658;85.326;2023-07-20T13:59:32;24.30;99.90
69204;DHT22;56317;27.658;85.326;2023-07-20T14:01:59;24.20;99.90
69204;DHT22;56317;27.658;85.326;2023-07-20T14:04:26;24.20;99.90
69204;DHT22;56317;27.658;85.326;2023-07-20T14:06:55;24.10;99.90
69204;DHT22;56317;27.658;85.326;2023-07-20T14:09:22;24.10;99.90
69204;DHT22;56317;27.658;85.326;2023-07-20T14:11:49;24.10;99.90
69204;DHT22;56317;27.658;85.326;2023-07-20T14:14:16;24.00;99.90
69204;DHT22;56317;27.658;85.326;2023-07-20T14:16:43;24.10;99.90
69204;DHT22;56317;27.658;85.326;2023-07-20T14:19:10;24.20;99.90
69204;DHT22;56317;27.658;85.326;2023-07-20T14:21:38;24.20;99.90
69204;DHT22;56317;27.658;85.326;2023-07-20T14:24:06;24.20;99.90
69204;DHT22;56317;27.658;85.326;2023-07-20T14:26:33;24.20;99.90
69204;DHT22;56317;27.658;85.326;2023-07-20T14:29:01;24.30;99.90
69204;DHT22;56317;27.658;85.326;2023-07-20T14:31:28;24.30;99.90
69204;DHT22;56317;27.658;85.326;2023-07-20T14:33:55;24.30;99.90
69204;DHT22;56317;27.658;85.326;2023-07-20T14:36:22;24.30;99.90
69204;DHT22;56317;27.658;85.326;2023-07-20T14:38:49;24.30;99.90
69204;DHT22;56317;27.658;85.326;2023-07-20T14:41:17;24.30;99.90
69204;DHT22;56317;27.658;85.326;2023-07-20T14:43:44;24.20;99.90
69204;DHT22;56317;27.658;85.326;2023-07-20T14:46:11;24.20;99.90
69204;DHT22;56317;27.658;85.326;2023-07-20T14:48:38;24.20;99.90
69204;DHT22;56317;27.658;85.326;2023-07-20T14:51:05;24.20;99.90
69204;DHT22;56317;27.658;85.326;2023-07-20T14:53:32;24.20;99.90
69204;DHT22;56317;27.658;85.326;2023-07-20T14:56:00;24.20;99.90
69204;DHT22;56317;27.658;85.326;2023-07-20T14:58:29;24.20;99.90
69204;DHT22;56317;27.658;85.326;2023-07-20T15:00:56;24.10;99.90
69204;DHT22;56317;27.658;85.326;2023-07-20T15:03:23;24.10;99.90
69204;DHT22;56317;27.658;85.326;2023-07-20T15:05:50;24.10;99.90
69204;DHT22;56317;27.658;85.326;2023-07-20T15:08:18;24.10;99.90
69204;DHT22;56317;27.658;85.326;2023-07-20T15:10:49;24.10;99.90
69204;DHT22;56317;27.658;85.326;2023-07-20T15:13:16;24.10;99.90
69204;DHT22;56317;27.658;85.326;2023-07-20T15:15:43;24.10;99.90
69204;DHT22;56317;27.658;85.326;2023-07-20T15:18:10;24.10;99.90
69204;DHT22;56317;27.658;85.326;2023-07-20T15:20:37;24.10;99.90
69204;DHT22;56317;27.658;85.326;2023-07-20T15:23:04;24.00;99.90
69204;DHT22;56317;27.658;85.326;2023-07-20T15:25:31;24.10;99.90
69204;DHT22;56317;27.658;85.326;2023-07-20T15:27:59;24.10;99.90
69204;DHT22;56317;27.658;85.326;2023-07-20T15:30:27;24.10;99.90
69204;DHT22;56317;27.658;85.326;2023-07-20T15:32:55;24.10;99.90
69204;DHT22;56317;27.658;85.326;2023-07-20T15:35:23;24.10;99.90
69204;DHT22;56317;27.658;85.326;2023-07-20T15:37:51;24.10;99.90
69204;DHT22;56317;27.658;85.326;2023-07-20T15:40:18;24.00;99.90
69204;DHT22;56317;27.658;85.326;2023-07-20T15:42:45;24.00;99.90